< < Back
Terminal Aerodrome Forecast


Current Version              Previous Versions:   1  2  3  4  5  6  7  8  9  

Terminal Aerodrome Forecast

658
FTUS42 KFFC 010500
TAFMCN
TAF
KMCN 010529Z 0106/0206 00000KT 2SM BR FEW003
      TEMPO 0109/0112 1/2SM FG VV002
     FM011400 23003KT P6SM FEW040
     FM020000 00000KT P6SM SKC=

Latest METAR

256
SAUS80 KWBC 020400 RRC
MTRMCN
METAR KMCN 020353Z AUTO 00000KT 8SM CLR 18/18 A3002 RMK AO2 SLP163
T01830183 TSNO


USA.gov is the U.S. government's official web portal to all federal, state and local government web resources and services.